Time;durP1;ratioP1;P1;durP2;ratioP2;P2;SDS_P1;SDS_P2;PMS_P1;PMS_P2;Temp;Humidity;BMP_temperature;BMP_pressure;BME280_temperature;BME280_humidity;BME280_pressure;Samples;Min_cycle;Max_cycle;Signal;HPM_P1;HPM_P2
2021/03/27 00:00:37;;;;;;;138.60;54.60;;;;;;;9.03;49.91;98781.63;5069919;28;19921;-78
2021/03/27 00:03:26;;;;;;;145.50;55.30;;;;;;;8.92;50.14;98788.25;5067352;28;20079;-78
2021/03/27 00:06:02;;;;;;;149.77;58.63;;;;;;;8.85;49.84;98774.84;5059665;28;20032;-79
2021/03/27 00:08:39;;;;;;;130.90;55.17;;;;;;;8.79;49.83;98775.94;5055981;28;20028;-80
2021/03/27 00:11:12;;;;;;;116.38;51.30;;;;;;;8.75;50.37;98775.69;5064124;28;20064;-79
2021/03/27 00:13:59;;;;;;;125.93;51.00;;;;;;;8.69;50.16;98774.06;5069412;28;20028;-80
2021/03/27 00:16:36;;;;;;;132.65;51.90;;;;;;;8.67;50.51;98773.50;5067078;28;20374;-79
2021/03/27 00:19:14;;;;;;;137.55;53.50;;;;;;;8.64;50.20;98772.16;5067666;28;20040;-79
2021/03/27 00:21:45;;;;;;;124.40;51.70;;;;;;;8.61;50.04;98771.88;5066871;28;20094;-79
2021/03/27 00:24:19;;;;;;;113.82;50.22;;;;;;;8.58;50.29;98766.94;5068197;28;20366;-79
2021/03/27 00:26:57;;;;;;;119.15;50.38;;;;;;;8.53;50.48;98770.53;5061708;28;20135;-79
2021/03/27 00:29:31;;;;;;;115.90;50.75;;;;;;;8.49;50.82;98762.06;5057480;28;20038;-79
2021/03/27 00:32:11;;;;;;;104.68;44.72;;;;;;;8.46;50.17;98768.03;5063063;28;20040;-79
2021/03/27 00:34:40;;;;;;;100.93;45.35;;;;;;;8.43;50.23;98765.03;5066621;28;20862;-79
2021/03/27 00:37:10;;;;;;;94.95;43.70;;;;;;;8.39;50.80;98764.75;5069347;28;20533;-78
2021/03/27 00:39:41;;;;;;;91.20;43.63;;;;;;;8.35;50.68;98758.22;5066854;28;20029;-79
2021/03/27 00:42:11;;;;;;;95.20;42.92;;;;;;;8.32;50.46;98754.13;5066513;28;20033;-78
2021/03/27 00:44:43;;;;;;;95.43;44.03;;;;;;;8.30;50.75;98750.84;5065439;28;20532;-78
2021/03/27 00:47:13;;;;;;;89.70;42.25;;;;;;;8.29;50.75;98748.38;5064779;28;20040;-79
2021/03/27 00:50:04;;;;;;;88.18;40.13;;;;;;;8.25;50.90;98742.63;5057462;28;20472;-79
2021/03/27 00:52:36;;;;;;;94.78;40.97;;;;;;;8.23;50.75;98750.28;5060071;28;20020;-79
2021/03/27 00:55:33;;;;;;;94.65;41.47;;;;;;;8.19;50.80;98749.19;5064409;28;20023;-79
2021/03/27 00:58:08;;;;;;;87.03;39.65;;;;;;;8.16;50.85;98741.53;5065045;28;20898;-79
2021/03/27 01:00:40;;;;;;;81.13;38.55;;;;;;;8.12;50.89;98738.56;5067965;28;20740;-79
2021/03/27 01:03:10;;;;;;;85.88;38.83;;;;;;;8.09;50.90;98738.25;5066989;28;20079;-78
2021/03/27 01:05:36;;;;;;;79.90;37.95;;;;;;;8.07;51.13;98741.28;5066459;28;20848;-79
2021/03/27 01:08:08;;;;;;;80.72;38.00;;;;;;;8.07;51.01;98734.97;5061930;28;20028;-79
2021/03/27 01:10:42;;;;;;;79.95;35.45;;;;;;;8.05;51.00;98727.88;5057092;28;20135;-78
2021/03/27 01:13:13;;;;;;;86.85;38.13;;;;;;;8.04;51.33;98726.22;5059123;28;20535;-78
2021/03/27 01:15:46;;;;;;;78.47;35.22;;;;;;;8.01;50.75;98725.97;5066283;28;20093;-78
2021/03/27 01:18:32;;;;;;;79.25;35.85;;;;;;;7.98;51.27;98723.78;5065663;28;20111;-78
2021/03/27 01:21:04;;;;;;;69.95;35.08;;;;;;;7.96;51.22;98723.25;5064704;28;20670;-77
2021/03/27 01:23:30;;;;;;;74.43;34.28;;;;;;;7.89;51.04;98723.50;5064289;28;20115;-78
2021/03/27 01:26:07;;;;;;;73.20;34.97;;;;;;;7.85;51.41;98719.69;5067527;28;20024;-79
2021/03/27 01:28:38;;;;;;;75.45;34.80;;;;;;;7.81;51.33;98724.03;5064058;28;20016;-78
2021/03/27 01:31:09;;;;;;;78.63;34.92;;;;;;;7.77;51.42;98720.22;5057136;28;20024;-78
2021/03/27 01:33:44;;;;;;;74.55;33.47;;;;;;;7.74;51.39;98724.31;5055580;28;20033;-77
2021/03/27 01:36:20;;;;;;;65.63;30.75;;;;;;;7.70;51.39;98724.03;5066266;28;20074;-78
2021/03/27 01:38:49;;;;;;;71.55;33.25;;;;;;;7.63;51.25;98723.47;5066488;28;20039;-79
2021/03/27 01:41:35;;;;;;;68.03;31.90;;;;;;;7.58;51.66;98721.56;5078511;28;20060;-78
2021/03/27 01:44:17;;;;;;;69.75;33.83;;;;;;;7.57;51.84;98713.63;5064768;28;20484;-77
2021/03/27 01:47:16;;;;;;;70.40;32.28;;;;;;;7.58;51.61;98713.38;5063837;28;20283;-78
2021/03/27 01:50:03;;;;;;;67.90;32.63;;;;;;;7.56;51.56;98712.81;5073464;28;20021;-78
2021/03/27 01:52:39;;;;;;;81.13;33.20;;;;;;;7.54;52.05;98712.25;5056997;28;20040;-77
2021/03/27 01:55:44;;;;;;;70.95;32.42;;;;;;;7.51;51.74;98710.06;5057438;28;20023;-78
2021/03/27 01:58:19;;;;;;;69.63;30.77;;;;;;;7.50;51.80;98702.16;5064814;28;20111;-79
2021/03/27 02:00:59;;;;;;;65.63;32.00;;;;;;;7.50;52.02;98704.91;5064938;28;20115;-78
2021/03/27 02:03:27;;;;;;;;;;;;;;;7.49;51.69;98712.25;5066811;28;20580;-78
2021/03/27 02:06:04;;;;;;;69.15;31.70;;;;;;;7.48;51.99;98698.88;5066158;28;20402;-78
2021/03/27 02:08:35;;;;;;;66.57;30.67;;;;;;;7.45;51.77;98703.78;5064926;28;20116;-78
2021/03/27 02:11:06;;;;;;;64.63;29.88;;;;;;;7.44;52.04;98693.97;5061504;28;20036;-78
2021/03/27 02:14:09;;;;;;;62.22;27.75;;;;;;;7.44;51.73;98699.44;5055859;28;20016;-78
2021/03/27 02:16:39;;;;;;;62.05;28.02;;;;;;;7.44;52.03;98690.41;5044464;28;20461;-78
2021/03/27 02:19:08;;;;;;;59.15;27.63;;;;;;;7.43;51.77;98694.22;5064019;28;20106;-78
2021/03/27 02:21:36;;;;;;;62.95;28.77;;;;;;;7.42;51.84;98682.50;5064577;28;20024;-78
2021/03/27 02:24:06;;;;;;;56.90;27.30;;;;;;;7.42;51.65;98690.69;5064657;28;20071;-78
2021/03/27 02:26:55;;;;;;;52.88;26.63;;;;;;;7.41;51.91;98685.47;5066048;28;20107;-78
2021/03/27 02:29:32;;;;;;;54.72;26.02;;;;;;;7.41;51.87;98691.78;5067130;28;20020;-77
2021/03/27 02:32:09;;;;;;;54.03;26.20;;;;;;;7.41;51.64;98688.22;5075038;28;20063;-76
2021/03/27 02:34:43;;;;;;;56.33;26.63;;;;;;;7.41;52.08;98693.66;5055872;28;20760;-76
2021/03/27 02:37:30;;;;;;;54.80;25.73;;;;;;;7.37;51.73;98685.22;5056113;28;20443;-77
2021/03/27 02:39:58;;;;;;;54.42;26.27;;;;;;;7.35;51.98;98681.94;5068636;28;20024;-77
2021/03/27 02:42:38;;;;;;;54.50;25.67;;;;;;;7.32;51.81;98682.47;5066588;28;20137;-76
2021/03/27 02:45:15;;;;;;;;;;;;;;;7.31;52.17;98683.56;5065833;28;20024;-76
2021/03/27 02:47:49;;;;;;;55.72;26.33;;;;;;;7.30;52.11;98684.66;5076827;28;20006;-76
2021/03/27 02:50:28;;;;;;;52.75;25.40;;;;;;;7.28;51.81;98686.81;5085956;28;20028;-77
2021/03/27 02:53:18;;;;;;;53.30;25.55;;;;;;;7.26;52.01;98686.28;5089800;28;20020;-77
2021/03/27 02:56:08;;;;;;;51.70;25.65;;;;;;;7.25;51.85;98682.75;5088481;28;20032;-77
2021/03/27 02:58:51;;;;;;;52.55;25.80;;;;;;;7.24;51.77;98683.00;5089905;28;20040;-75
2021/03/27 03:01:53;;;;;;;56.05;26.73;;;;;;;7.21;52.01;98680.78;5089879;28;20036;-76
2021/03/27 03:04:34;;;;;;;53.95;25.33;;;;;;;7.17;52.23;98680.53;5075964;28;20496;-76
2021/03/27 03:07:19;;;;;;;52.42;24.80;;;;;;;7.13;52.24;98672.03;5090327;28;20461;-77
2021/03/27 03:10:27;;;;;;;50.92;23.92;;;;;;;7.11;52.13;98673.41;5088247;28;20035;-77
2021/03/27 03:12:59;;;;;;;50.72;24.75;;;;;;;7.08;52.21;98671.22;5089169;28;20107;-77
2021/03/27 03:16:07;;;;;;;49.38;24.70;;;;;;;7.06;52.09;98666.03;5088147;28;20028;-77
2021/03/27 03:18:51;;;;;;;48.72;23.30;;;;;;;7.05;51.99;98664.41;5010750;28;20029;-77
2021/03/27 03:21:31;;;;;;;48.30;23.00;;;;;;;7.01;51.96;98660.56;5010563;28;20811;-76
2021/03/27 03:24:07;;;;;;;50.70;24.13;;;;;;;7.01;51.80;98660.56;5069667;28;20422;-77
2021/03/27 03:27:01;;;;;;;46.55;21.88;;;;;;;6.99;51.97;98658.09;5092883;28;20027;-78
2021/03/27 03:29:36;;;;;;;49.58;23.35;;;;;;;6.98;51.91;98655.66;5091460;28;20032;-77
2021/03/27 03:32:12;;;;;;;48.50;22.80;;;;;;;6.95;52.25;98659.72;5093844;28;20414;-77
2021/03/27 03:35:02;;;;;;;45.15;21.95;;;;;;;6.94;52.22;98655.34;5094172;28;20490;-77
2021/03/27 03:37:45;;;;;;;45.80;21.92;;;;;;;6.93;52.12;98650.19;5091707;28;20032;-76
2021/03/27 03:40:31;;;;;;;45.97;22.52;;;;;;;6.90;52.45;98647.97;5090448;28;20046;-77
2021/03/27 03:43:02;;;;;;;45.88;21.23;;;;;;;6.87;52.15;98648.50;5093000;28;20464;-77
2021/03/27 03:45:30;;;;;;;44.15;22.02;;;;;;;6.83;52.52;98649.03;5091308;28;20038;-76
2021/03/27 03:48:34;;;;;;;44.95;21.58;;;;;;;6.83;52.29;98648.25;5093457;28;20031;-77
2021/03/27 03:51:23;;;;;;;46.35;21.02;;;;;;;6.82;52.14;98646.59;5010089;28;20451;-77
2021/03/27 03:54:12;;;;;;;46.17;22.40;;;;;;;6.80;52.16;98640.59;5009645;28;20053;-77
2021/03/27 03:57:08;;;;;;;46.53;22.85;;;;;;;6.77;52.42;98641.94;5064551;28;20127;-76
2021/03/27 03:59:39;;;;;;;49.47;21.52;;;;;;;6.78;52.33;98642.75;5091795;28;20040;-76
2021/03/27 04:02:29;;;;;;;46.15;21.15;;;;;;;6.75;52.47;98641.38;5093631;28;20107;-76
2021/03/27 04:05:01;;;;;;;48.70;23.00;;;;;;;6.75;52.42;98635.91;5092299;28;20029;-77
2021/03/27 04:07:35;;;;;;;49.63;23.08;;;;;;;6.78;52.70;98640.03;5091209;28;20050;-77
2021/03/27 04:10:15;;;;;;;44.45;22.08;;;;;;;6.80;52.79;98638.66;5093378;28;20028;-76
2021/03/27 04:12:47;;;;;;;49.40;21.38;;;;;;;6.83;52.65;98638.13;5093513;28;20027;-77
2021/03/27 04:15:39;;;;;;;44.83;21.02;;;;;;;6.84;52.60;98633.53;5093373;28;20012;-77
2021/03/27 04:18:13;;;;;;;44.72;20.85;;;;;;;6.83;52.74;98637.34;5093214;28;20032;-76
2021/03/27 04:20:48;;;;;;;39.65;19.88;;;;;;;6.82;52.34;98639.22;5093185;28;20028;-76
2021/03/27 04:23:42;;;;;;;41.55;19.67;;;;;;;6.82;52.66;98631.03;5091792;28;20383;-77
2021/03/27 04:26:17;;;;;;;38.75;18.58;;;;;;;6.83;52.67;98640.06;5090844;28;20044;-77
2021/03/27 04:28:48;;;;;;;37.83;18.70;;;;;;;6.84;52.16;98638.97;5092452;28;20031;-77
2021/03/27 04:31:28;;;;;;;39.90;19.27;;;;;;;6.84;52.23;98638.97;5093066;28;20032;-76
2021/03/27 04:34:08;;;;;;;43.38;19.75;;;;;;;6.83;52.61;98635.41;5091709;28;20031;-76
2021/03/27 04:37:01;;;;;;;35.90;17.92;;;;;;;6.83;52.33;98637.34;5091616;28;20487;-76
2021/03/27 04:39:46;;;;;;;41.45;19.35;;;;;;;6.82;52.08;98641.94;5092012;28;20042;-77
2021/03/27 04:42:17;;;;;;;39.22;19.15;;;;;;;6.87;52.01;98643.06;5089849;28;20023;-77
2021/03/27 04:45:04;;;;;;;40.83;19.70;;;;;;;6.88;51.97;98647.44;5092849;28;20055;-77
2021/03/27 04:47:36;;;;;;;43.20;20.77;;;;;;;6.87;52.42;98659.41;5090705;28;20060;-77
2021/03/27 04:50:26;;;;;;;117.93;45.40;;;;;;;6.83;52.45;98649.03;5092692;28;20026;-77
2021/03/27 04:53:03;;;;;;;123.32;48.67;;;;;;;6.80;52.23;98644.13;5090886;28;20028;-77
2021/03/27 04:55:43;;;;;;;76.70;34.33;;;;;;;6.75;52.19;98649.56;5091675;28;20036;-77
2021/03/27 04:58:46;;;;;;;81.70;35.97;;;;;;;6.72;51.95;98647.38;5090418;28;20376;-77
2021/03/27 05:01:17;;;;;;;53.38;24.88;;;;;;;6.71;52.31;98653.91;5090279;28;20036;-77
2021/03/27 05:03:53;;;;;;;46.97;22.50;;;;;;;6.68;52.51;98651.72;5092273;28;20052;-77
2021/03/27 05:06:34;;;;;;;43.92;22.58;;;;;;;6.65;52.78;98652.25;5092731;28;20020;-77
2021/03/27 05:09:21;;;;;;;44.42;21.88;;;;;;;6.62;52.42;98658.22;5092228;28;20422;-77
2021/03/27 05:11:55;;;;;;;47.03;23.60;;;;;;;6.59;52.30;98659.56;5092095;28;20057;-77
2021/03/27 05:14:42;;;;;;;39.00;20.55;;;;;;;6.51;52.41;98660.91;5092266;28;20024;-76
2021/03/27 05:17:17;;;;;;;40.42;20.00;;;;;;;6.50;52.74;98663.91;5092420;28;20693;-76
2021/03/27 05:20:10;;;;;;;39.00;19.80;;;;;;;6.49;52.74;98667.72;5090578;28;20035;-77
2021/03/27 05:22:50;;;;;;;39.13;20.48;;;;;;;6.48;53.02;98655.97;5090092;28;20036;-77
2021/03/27 05:25:38;;;;;;;44.92;21.17;;;;;;;6.48;53.02;98661.44;5090262;28;20016;-77
2021/03/27 05:28:16;;;;;;;47.92;20.73;;;;;;;6.55;53.06;98658.44;5090456;28;20012;-77
2021/03/27 05:30:46;;;;;;;40.15;20.75;;;;;;;6.63;52.92;98657.16;5091864;28;20027;-77
2021/03/27 05:33:27;;;;;;;47.70;22.23;;;;;;;6.69;52.82;98656.91;5091811;28;20020;-76
2021/03/27 05:36:37;;;;;;;47.28;25.40;;;;;;;6.78;53.17;98656.41;5082589;28;20046;-77
2021/03/27 05:39:33;;;;;;;66.50;30.23;;;;;;;6.89;52.97;98659.97;5061034;28;20065;-77
2021/03/27 05:42:23;;;;;;;56.30;26.50;;;;;;;6.99;52.83;98657.28;5090113;28;20495;-76
2021/03/27 05:45:06;;;;;;;56.00;25.73;;;;;;;7.10;53.12;98658.13;5092403;28;20032;-77
2021/03/27 05:47:49;;;;;;;51.42;23.83;;;;;;;7.21;52.91;98658.97;5091208;28;20089;-77
2021/03/27 05:50:25;;;;;;;53.95;26.40;;;;;;;7.30;52.71;98652.75;5093161;28;20047;-77
2021/03/27 05:53:02;;;;;;;50.60;24.85;;;;;;;7.38;52.48;98651.38;5092496;28;20028;-77
2021/03/27 05:55:36;;;;;;;48.50;25.55;;;;;;;7.48;52.63;98660.69;5092515;28;20102;-76
2021/03/27 05:58:10;;;;;;;50.42;24.85;;;;;;;7.56;52.67;98654.66;5092326;28;20028;-77
2021/03/27 06:00:48;;;;;;;49.58;24.27;;;;;;;7.64;52.28;98650.59;5092602;28;20042;-78
2021/03/27 06:03:43;;;;;;;47.28;24.08;;;;;;;7.70;52.02;98649.50;5090568;28;20535;-77
2021/03/27 06:06:28;;;;;;;47.13;24.30;;;;;;;7.77;52.22;98649.22;5091464;28;20185;-77
2021/03/27 06:08:59;;;;;;;53.05;24.83;;;;;;;7.84;51.86;98647.84;5092443;28;20040;-77
2021/03/27 06:11:30;;;;;;;50.17;25.08;;;;;;;7.93;52.18;98639.94;5092430;28;20484;-77
2021/03/27 06:14:38;;;;;;;50.70;24.88;;;;;;;8.03;52.18;98647.31;5092750;28;20099;-77
2021/03/27 06:17:30;;;;;;;49.60;23.30;;;;;;;8.15;52.00;98644.28;5010482;28;20025;-77
2021/03/27 06:20:20;;;;;;;48.88;23.20;;;;;;;8.23;51.97;98641.00;5090021;28;20040;-76
2021/03/27 06:23:17;;;;;;;48.65;23.88;;;;;;;8.33;52.06;98634.69;5092180;28;20085;-77
2021/03/27 06:25:47;;;;;;;43.30;19.60;;;;;;;8.43;51.88;98636.56;5087775;28;20043;-77
2021/03/27 06:28:51;;;;;;;49.78;24.30;;;;;;;8.51;51.39;98640.69;5072319;28;20028;-77
2021/03/27 06:31:48;;;;;;;48.42;23.73;;;;;;;8.62;51.78;98639.53;5075633;28;20463;-77
2021/03/27 06:34:36;;;;;;;47.35;22.77;;;;;;;8.75;51.30;98632.69;5090913;28;20530;-77
2021/03/27 06:37:23;;;;;;;60.08;28.05;;;;;;;8.85;51.04;98632.59;5092011;28;20467;-77
2021/03/27 06:39:48;;;;;;;53.97;26.00;;;;;;;8.94;51.26;98621.91;5091690;28;20484;-76
2021/03/27 06:42:43;;;;;;;53.00;26.30;;;;;;;9.03;50.92;98630.34;5092184;28;20034;-76
2021/03/27 06:45:36;;;;;;;48.88;24.70;;;;;;;9.14;50.93;98631.09;5092065;28;20043;-76
2021/03/27 06:48:29;;;;;;;45.72;23.42;;;;;;;9.24;51.03;98622.84;5091134;28;20031;-76
2021/03/27 06:51:22;;;;;;;76.90;31.00;;;;;;;9.33;50.60;98628.53;5092095;28;20024;-76
2021/03/27 06:54:11;;;;;;;78.40;32.17;;;;;;;9.39;50.64;98622.72;5094390;28;20035;-76
2021/03/27 06:56:44;;;;;;;100.00;38.10;;;;;;;9.47;50.58;98620.50;5054584;28;20404;-77
2021/03/27 06:59:52;;;;;;;147.55;46.20;;;;;;;9.56;50.56;98615.25;5092384;28;20036;-76
2021/03/27 07:02:32;;;;;;;61.78;27.13;;;;;;;9.64;50.86;98615.44;5093765;28;20550;-76
2021/03/27 07:05:22;;;;;;;47.22;21.58;;;;;;;9.72;49.93;98624.94;5093981;28;20028;-76
2021/03/27 07:08:12;;;;;;;42.38;21.58;;;;;;;9.86;49.54;98625.09;5093849;28;20031;-76
2021/03/27 07:11:07;;;;;;;;;;;;;;;9.96;49.82;98622.28;5095911;28;20036;-76
2021/03/27 07:14:08;;;;;;;36.90;17.70;;;;;;;10.10;49.74;98621.63;5100471;28;19911;-76
2021/03/27 07:16:45;;;;;;;40.72;18.80;;;;;;;10.20;49.00;98618.75;5072286;27;20693;-76
2021/03/27 07:19:29;;;;;;;34.80;18.20;;;;;;;10.35;49.45;98616.97;5095518;28;20020;-76
2021/03/27 07:22:26;;;;;;;35.83;17.52;;;;;;;10.51;48.26;98614.91;5095312;28;20028;-76
2021/03/27 07:25:21;;;;;;;35.15;17.15;;;;;;;10.67;48.37;98619.09;5074961;28;20028;-76
2021/03/27 07:28:05;;;;;;;36.92;16.60;;;;;;;10.82;47.39;98618.09;5093920;28;20098;-76
2021/03/27 07:31:01;;;;;;;36.35;17.85;;;;;;;10.95;47.62;98622.03;5093443;28;20036;-76
2021/03/27 07:33:55;;;;;;;30.13;14.90;;;;;;;11.09;47.57;98615.81;5095315;28;20353;-77
2021/03/27 07:36:45;;;;;;;29.38;13.60;;;;;;;11.23;47.08;98610.41;5094229;28;20048;-76
2021/03/27 07:39:33;;;;;;;;;;;;;;;11.35;45.05;98619.03;5093562;28;20028;-77
2021/03/27 07:42:25;;;;;;;28.35;14.45;;;;;;;11.46;45.93;98615.00;5094822;28;19954;-76
2021/03/27 07:45:07;;;;;;;32.70;15.02;;;;;;;11.61;45.04;98624.13;5095147;28;20392;-76
2021/03/27 07:48:10;;;;;;;33.17;14.88;;;;;;;11.75;44.99;98618.66;5094498;28;20056;-76
2021/03/27 07:50:50;;;;;;;26.55;13.55;;;;;;;11.89;44.86;98619.53;5095016;28;20043;-77
2021/03/27 07:53:55;;;;;;;33.72;16.55;;;;;;;12.03;44.03;98616.84;5095123;28;20054;-77
2021/03/27 07:56:39;;;;;;;29.25;15.18;;;;;;;12.26;43.31;98610.69;5056041;28;20516;-76
2021/03/27 07:59:29;;;;;;;25.40;12.57;;;;;;;12.41;43.61;98612.31;5093592;28;20037;-75
2021/03/27 08:01:58;;;;;;;24.63;12.70;;;;;;;12.55;42.29;98613.16;5079739;28;20032;-76
2021/03/27 08:04:41;;;;;;;36.25;17.40;;;;;;;12.70;42.53;98619.44;5093779;28;20107;-77
2021/03/27 08:07:43;;;;;;;35.15;16.70;;;;;;;12.88;41.72;98612.19;5094774;28;20507;-75
2021/03/27 08:10:32;;;;;;;26.23;12.25;;;;;;;13.03;41.75;98609.13;5094268;28;20032;-76
2021/03/27 08:13:23;;;;;;;32.65;16.48;;;;;;;13.21;41.85;98612.06;5091737;28;20051;-76
2021/03/27 08:16:16;;;;;;;29.98;14.60;;;;;;;13.39;41.49;98610.25;5084292;28;20032;-76
2021/03/27 08:19:17;;;;;;;38.53;18.80;;;;;;;13.65;41.62;98624.25;5093775;28;20028;-75
2021/03/27 08:22:07;;;;;;;26.98;14.40;;;;;;;13.88;41.54;98615.16;5091015;28;20044;-76
2021/03/27 08:24:39;;;;;;;27.95;14.57;;;;;;;14.01;41.04;98611.53;5094306;28;20028;-76
2021/03/27 08:27:13;;;;;;;27.95;14.07;;;;;;;14.16;40.75;98621.34;5094453;28;20110;-76
2021/03/27 08:29:42;;;;;;;33.90;15.48;;;;;;;14.27;40.09;98617.19;5094606;28;20020;-75
2021/03/27 08:32:32;;;;;;;28.38;14.85;;;;;;;14.37;39.40;98629.09;5093099;28;20027;-76
2021/03/27 08:35:19;;;;;;;27.50;13.68;;;;;;;14.49;38.63;98626.53;5094328;28;20031;-77
2021/03/27 08:37:59;;;;;;;41.92;18.77;;;;;;;14.56;38.56;98626.88;5096005;28;20028;-78
2021/03/27 08:40:59;;;;;;;24.00;12.63;;;;;;;14.62;38.48;98615.72;5095821;28;20036;-79
2021/03/27 08:43:45;;;;;;;34.80;16.52;;;;;;;14.66;38.13;98619.47;5091129;28;20028;-76
2021/03/27 08:46:33;;;;;;;27.10;12.80;;;;;;;14.76;38.52;98619.22;5093127;28;20483;-76
2021/03/27 08:49:30;;;;;;;24.77;12.32;;;;;;;14.81;37.57;98619.06;5093518;28;20107;-76
2021/03/27 08:52:16;;;;;;;29.33;14.68;;;;;;;14.83;38.00;98622.31;5092121;28;20032;-74
2021/03/27 08:54:45;;;;;;;32.72;16.23;;;;;;;14.89;37.37;98615.50;5092404;28;20031;-75
2021/03/27 08:57:28;;;;;;;27.58;13.48;;;;;;;14.99;37.69;98611.63;5092372;28;20032;-76
2021/03/27 09:00:15;;;;;;;24.67;13.13;;;;;;;15.09;37.54;98610.50;5088189;28;20047;-76
2021/03/27 09:02:49;;;;;;;27.15;14.60;;;;;;;15.18;37.05;98611.34;5091839;28;20059;-76
2021/03/27 09:05:59;;;;;;;28.92;15.63;;;;;;;15.24;36.02;98613.94;5092391;28;20024;-77
2021/03/27 09:08:43;;;;;;;24.70;12.52;;;;;;;15.18;35.45;98613.28;5073418;28;20047;-77
2021/03/27 09:11:43;;;;;;;37.15;17.35;;;;;;;15.16;36.16;98615.53;5092276;28;20042;-77
2021/03/27 09:14:09;;;;;;;26.40;13.38;;;;;;;15.19;36.10;98612.13;5090967;28;20044;-76
2021/03/27 09:17:14;;;;;;;35.45;16.65;;;;;;;15.23;36.30;98612.31;5091491;28;20032;-77
2021/03/27 09:19:42;;;;;;;27.70;14.50;;;;;;;15.29;36.37;98611.00;5084570;28;21621;-77
2021/03/27 09:22:28;;;;;;;27.48;14.70;;;;;;;15.38;36.06;98620.13;5061251;28;20028;-76
2021/03/27 09:25:14;;;;;;;27.75;13.38;;;;;;;15.43;35.29;98613.63;5061052;28;20032;-77
2021/03/27 09:27:47;;;;;;;28.48;14.00;;;;;;;15.52;35.90;98602.56;5065565;28;20574;-74
2021/03/27 09:30:15;;;;;;;22.60;11.75;;;;;;;15.62;35.45;98613.31;5064181;28;20042;-75
2021/03/27 09:33:20;;;;;;;25.38;12.77;;;;;;;15.70;35.07;98609.69;5065290;28;20047;-75
2021/03/27 09:36:07;;;;;;;22.85;12.55;;;;;;;15.71;34.84;98614.09;5065555;28;20036;-74
2021/03/27 09:38:42;;;;;;;22.60;11.95;;;;;;;15.77;35.23;98609.22;5066253;28;20033;-73
2021/03/27 09:41:30;;;;;;;25.02;12.45;;;;;;;15.88;35.03;98627.13;5063597;28;20048;-74
2021/03/27 09:44:11;;;;;;;24.70;13.05;;;;;;;16.04;34.49;98618.31;5057129;28;20119;-74
2021/03/27 09:46:58;;;;;;;26.83;13.18;;;;;;;16.23;35.27;98617.94;5057717;28;20028;-73
2021/03/27 09:50:18;;;;;;;21.23;10.18;;;;;;;16.47;34.40;98619.34;5066749;28;20030;-73
2021/03/27 09:52:52;;;;;;;;;;;;;;;16.62;33.53;98606.88;5019559;28;20119;-74
2021/03/27 09:55:29;;;;;;;19.95;10.15;;;;;;;16.69;33.51;98609.94;5059285;28;19919;-75
2021/03/27 09:58:22;;;;;;;21.58;11.23;;;;;;;16.71;32.13;98615.94;5065216;28;20113;-74
2021/03/27 10:00:47;;;;;;;17.65;10.20;;;;;;;16.67;32.34;98604.72;5030586;28;20123;-73
2021/03/27 10:03:15;;;;;;;20.92;9.70;;;;;;;16.63;32.35;98619.59;5061531;28;20143;-73
2021/03/27 10:06:02;;;;;;;20.17;9.85;;;;;;;16.57;31.71;98618.94;5059264;28;20037;-74
2021/03/27 10:08:38;;;;;;;18.67;10.40;;;;;;;16.54;32.36;98613.25;5061117;28;20043;-73
2021/03/27 10:11:19;;;;;;;16.75;9.63;;;;;;;16.52;32.58;98608.88;5064968;28;20035;-73
2021/03/27 10:13:55;;;;;;;17.05;9.10;;;;;;;16.56;32.67;98605.44;5075709;28;20048;-73
2021/03/27 10:16:23;;;;;;;18.55;9.38;;;;;;;16.58;33.12;98605.94;5066277;28;20031;-73
2021/03/27 10:19:16;;;;;;;16.38;10.07;;;;;;;16.61;32.88;98610.81;5065791;28;21109;-73
2021/03/27 10:22:18;;;;;;;20.23;10.80;;;;;;;16.64;32.99;98602.63;5065351;28;20162;-74
2021/03/27 10:25:03;;;;;;;19.52;10.13;;;;;;;16.69;32.75;98600.81;5058475;28;20063;-75
2021/03/27 10:27:53;;;;;;;21.35;10.68;;;;;;;16.76;32.56;98598.34;5058858;28;20400;-74
2021/03/27 10:30:18;;;;;;;20.25;10.32;;;;;;;16.82;32.37;98608.09;5065351;28;20492;-74
2021/03/27 10:32:59;;;;;;;30.13;14.43;;;;;;;16.85;32.18;98592.75;5068680;28;20063;-74
2021/03/27 10:35:51;;;;;;;20.48;10.23;;;;;;;16.87;30.79;98605.13;5067688;28;20067;-74
2021/03/27 10:38:44;;;;;;;20.00;10.57;;;;;;;16.95;30.84;98601.47;5069532;28;20028;-74
2021/03/27 10:41:16;;;;;;;17.92;9.60;;;;;;;17.05;31.10;98605.84;5067507;28;20028;-74
2021/03/27 10:44:03;;;;;;;20.15;9.32;;;;;;;17.20;30.04;98611.94;5066229;28;20056;-75
2021/03/27 10:46:58;;;;;;;20.30;9.80;;;;;;;17.32;29.19;98614.00;5056587;28;20682;-75
2021/03/27 10:49:37;;;;;;;20.05;10.35;;;;;;;17.43;29.81;98623.50;5050697;28;20040;-75
2021/03/27 10:52:33;;;;;;;20.15;10.32;;;;;;;17.52;30.30;98607.63;5068274;28;20017;-75
2021/03/27 10:55:14;;;;;;;17.60;9.43;;;;;;;17.71;29.95;98604.34;5066921;28;20032;-74
2021/03/27 10:58:04;;;;;;;17.00;9.10;;;;;;;17.99;29.77;98597.44;5069447;28;20028;-74
2021/03/27 11:01:07;;;;;;;19.33;9.77;;;;;;;18.15;29.54;98595.59;5066889;28;20454;-74
2021/03/27 11:03:54;;;;;;;15.60;8.57;;;;;;;18.33;29.83;98606.53;5070475;28;20099;-74
2021/03/27 11:06:44;;;;;;;14.48;7.68;;;;;;;18.25;27.53;98613.81;5063399;28;20066;-75
2021/03/27 11:09:27;;;;;;;16.02;9.45;;;;;;;18.06;27.22;98627.38;5059331;28;20024;-74
2021/03/27 11:12:14;;;;;;;16.35;8.00;;;;;;;17.81;27.46;98624.50;5062324;28;20040;-75
2021/03/27 11:14:52;;;;;;;20.65;11.02;;;;;;;17.55;28.81;98633.84;5070251;28;20036;-74
2021/03/27 11:17:50;;;;;;;19.30;9.23;;;;;;;17.38;28.93;98643.94;5069252;28;20927;-74
2021/03/27 11:20:47;;;;;;;18.95;9.60;;;;;;;17.09;28.95;98648.38;5067383;28;20668;-76
2021/03/27 11:23:13;;;;;;;17.52;8.60;;;;;;;16.92;29.92;98649.22;5067850;28;20032;-74
2021/03/27 11:25:59;;;;;;;15.05;8.30;;;;;;;16.78;29.75;98656.97;5070228;28;20127;-76
2021/03/27 11:28:31;;;;;;;18.85;9.88;;;;;;;16.68;29.20;98655.41;5071628;28;20765;-74
2021/03/27 11:31:23;;;;;;;20.23;9.95;;;;;;;16.60;29.62;98670.88;5059152;28;20092;-76
2021/03/27 11:34:10;;;;;;;28.85;13.27;;;;;;;16.57;29.51;98681.81;5067661;28;20033;-75
2021/03/27 11:37:03;;;;;;;18.70;9.65;;;;;;;16.55;29.86;98686.88;5079233;28;20032;-76
2021/03/27 11:39:43;;;;;;;17.00;9.57;;;;;;;16.54;29.98;98694.34;5065451;28;20091;-76
2021/03/27 11:42:25;;;;;;;22.58;10.32;;;;;;;16.62;30.40;98692.72;5068392;28;20028;-75
2021/03/27 11:44:58;;;;;;;23.20;11.80;;;;;;;16.84;31.15;98683.34;5067948;28;20039;-75
2021/03/27 11:47:52;;;;;;;17.08;9.10;;;;;;;17.07;30.69;98692.25;5066061;28;20025;-76
2021/03/27 11:50:43;;;;;;;21.27;11.63;;;;;;;17.18;30.63;98683.50;5061436;28;20612;-76
2021/03/27 11:53:19;;;;;;;19.38;11.30;;;;;;;17.31;30.86;98690.00;5062074;28;20064;-75
2021/03/27 11:56:30;;;;;;;27.02;13.25;;;;;;;17.41;30.63;98673.78;5068308;28;20040;-75
2021/03/27 12:02:35;;;;;;;23.42;12.45;;;;;;;17.18;30.86;98700.97;4923607;28;20052;-74
2021/03/27 12:05:11;;;;;;;19.92;11.23;;;;;;;17.07;30.91;98691.41;5067523;28;20051;-76
2021/03/27 12:07:42;;;;;;;19.98;10.20;;;;;;;16.95;30.93;98722.56;5066831;28;20497;-76
2021/03/27 12:10:38;;;;;;;20.30;10.80;;;;;;;16.77;31.04;98725.41;5057867;28;20040;-76
2021/03/27 12:13:10;;;;;;;17.20;8.55;;;;;;;16.64;31.26;98730.00;5057504;28;20024;-76
2021/03/27 12:16:06;;;;;;;18.73;9.23;;;;;;;16.44;32.22;98736.25;5066575;28;20629;-75
2021/03/27 12:18:47;;;;;;;22.40;10.90;;;;;;;16.29;32.85;98743.13;5067143;28;20075;-75
2021/03/27 12:21:19;;;;;;;21.77;14.68;;;;;;;16.13;33.52;98754.69;5065216;28;20032;-75
2021/03/27 12:23:53;;;;;;;14.90;8.52;;;;;;;15.92;34.06;98762.81;5066324;28;20131;-75
2021/03/27 12:26:28;;;;;;;18.08;11.70;;;;;;;15.70;35.29;98763.72;5065936;28;20032;-75
2021/03/27 12:29:00;;;;;;;14.57;8.85;;;;;;;15.43;36.07;98766.44;5067666;28;20047;-75
2021/03/27 12:31:35;;;;;;;19.58;12.48;;;;;;;15.22;36.79;98766.22;5069314;28;20046;-75
2021/03/27 12:34:15;;;;;;;16.77;9.85;;;;;;;15.03;37.59;98767.28;5056647;28;20025;-81
2021/03/27 12:36:41;;;;;;;;;;;;;;;14.92;38.64;98778.91;5063416;28;20028;-79
2021/03/27 12:39:41;;;;;;;21.80;12.20;;;;;;;14.74;38.33;98774.13;5076252;28;19957;-83